sensor_id;sensor_type;location;lat;lon;timestamp;P1;durP1;ratioP1;P2;durP2;ratioP2
43554;SDS011;35085;40.398;-3.702;2022-07-01T00:06:11;3.00;;;1.50;;
43554;SDS011;35085;40.398;-3.702;2022-07-01T00:16:13;2.58;;;1.33;;
43554;SDS011;35085;40.398;-3.702;2022-07-01T00:26:22;2.70;;;0.97;;
43554;SDS011;35085;40.398;-3.702;2022-07-01T00:36:31;1.20;;;0.75;;
43554;SDS011;35085;40.398;-3.702;2022-07-01T00:46:39;1.98;;;0.80;;
43554;SDS011;35085;40.398;-3.702;2022-07-01T00:56:48;2.20;;;0.93;;
43554;SDS011;35085;40.398;-3.702;2022-07-01T01:06:57;7.50;;;1.13;;
43554;SDS011;35085;40.398;-3.702;2022-07-01T01:17:06;3.43;;;1.40;;
43554;SDS011;35085;40.398;-3.702;2022-07-01T01:27:15;3.87;;;1.10;;
43554;SDS011;35085;40.398;-3.702;2022-07-01T01:47:33;2.00;;;0.90;;
43554;SDS011;35085;40.398;-3.702;2022-07-01T01:57:45;4.55;;;1.17;;
43554;SDS011;35085;40.398;-3.702;2022-07-01T02:07:56;1.65;;;0.80;;
43554;SDS011;35085;40.398;-3.702;2022-07-01T02:18:10;2.90;;;0.80;;
43554;SDS011;35085;40.398;-3.702;2022-07-01T02:28:27;4.38;;;0.90;;
43554;SDS011;35085;40.398;-3.702;2022-07-01T02:38:44;1.15;;;0.60;;
43554;SDS011;35085;40.398;-3.702;2022-07-01T02:48:57;2.33;;;0.77;;
43554;SDS011;35085;40.398;-3.702;2022-07-01T02:59:11;2.67;;;0.77;;
43554;SDS011;35085;40.398;-3.702;2022-07-01T03:09:22;0.80;;;0.55;;
43554;SDS011;35085;40.398;-3.702;2022-07-01T03:19:35;2.50;;;0.77;;
43554;SDS011;35085;40.398;-3.702;2022-07-01T03:29:38;2.65;;;0.70;;
43554;SDS011;35085;40.398;-3.702;2022-07-01T03:39:47;1.13;;;0.70;;
43554;SDS011;35085;40.398;-3.702;2022-07-01T03:49:57;1.75;;;0.73;;
43554;SDS011;35085;40.398;-3.702;2022-07-01T04:00:06;1.13;;;0.80;;
43554;SDS011;35085;40.398;-3.702;2022-07-01T04:10:09;1.40;;;0.60;;
43554;SDS011;35085;40.398;-3.702;2022-07-01T04:20:18;2.93;;;0.90;;
43554;SDS011;35085;40.398;-3.702;2022-07-01T04:30:21;3.28;;;0.70;;
43554;SDS011;35085;40.398;-3.702;2022-07-01T04:50:37;1.67;;;0.90;;
43554;SDS011;35085;40.398;-3.702;2022-07-01T05:00:46;2.42;;;0.80;;
43554;SDS011;35085;40.398;-3.702;2022-07-01T05:10:56;1.38;;;0.82;;
43554;SDS011;35085;40.398;-3.702;2022-07-01T05:21:06;2.55;;;0.75;;
43554;SDS011;35085;40.398;-3.702;2022-07-01T05:31:27;2.83;;;0.70;;
43554;SDS011;35085;40.398;-3.702;2022-07-01T05:41:38;2.00;;;0.85;;
43554;SDS011;35085;40.398;-3.702;2022-07-01T05:51:46;2.22;;;0.70;;
43554;SDS011;35085;40.398;-3.702;2022-07-01T06:01:55;2.03;;;0.70;;
43554;SDS011;35085;40.398;-3.702;2022-07-01T06:11:58;2.72;;;0.93;;
43554;SDS011;35085;40.398;-3.702;2022-07-01T06:22:06;2.17;;;0.70;;
43554;SDS011;35085;40.398;-3.702;2022-07-01T06:32:19;2.38;;;0.73;;
43554;SDS011;35085;40.398;-3.702;2022-07-01T06:42:33;2.17;;;0.80;;
43554;SDS011;35085;40.398;-3.702;2022-07-01T06:52:42;4.45;;;0.80;;
43554;SDS011;35085;40.398;-3.702;2022-07-01T07:02:52;2.58;;;0.60;;
43554;SDS011;35085;40.398;-3.702;2022-07-01T07:12:55;5.55;;;0.70;;
43554;SDS011;35085;40.398;-3.702;2022-07-01T07:23:06;2.58;;;0.70;;
43554;SDS011;35085;40.398;-3.702;2022-07-01T07:33:15;2.03;;;0.85;;
43554;SDS011;35085;40.398;-3.702;2022-07-01T07:43:24;3.97;;;0.75;;
43554;SDS011;35085;40.398;-3.702;2022-07-01T07:53:27;4.03;;;1.00;;
43554;SDS011;35085;40.398;-3.702;2022-07-01T08:03:36;2.60;;;0.80;;
43554;SDS011;35085;40.398;-3.702;2022-07-01T08:13:47;1.50;;;0.77;;
43554;SDS011;35085;40.398;-3.702;2022-07-01T08:23:57;8.23;;;3.20;;
43554;SDS011;35085;40.398;-3.702;2022-07-01T08:34:06;2.90;;;1.10;;
43554;SDS011;35085;40.398;-3.702;2022-07-01T08:44:14;5.03;;;2.60;;
43554;SDS011;35085;40.398;-3.702;2022-07-01T08:54:24;4.82;;;1.95;;
43554;SDS011;35085;40.398;-3.702;2022-07-01T09:04:35;5.43;;;1.58;;
43554;SDS011;35085;40.398;-3.702;2022-07-01T09:14:44;3.95;;;1.40;;
43554;SDS011;35085;40.398;-3.702;2022-07-01T09:24:55;4.40;;;1.42;;
43554;SDS011;35085;40.398;-3.702;2022-07-01T09:35:04;4.55;;;1.80;;
43554;SDS011;35085;40.398;-3.702;2022-07-01T09:45:13;3.72;;;2.85;;
43554;SDS011;35085;40.398;-3.702;2022-07-01T09:55:22;5.97;;;1.95;;
43554;SDS011;35085;40.398;-3.702;2022-07-01T10:15:57;9.45;;;2.30;;
43554;SDS011;35085;40.398;-3.702;2022-07-01T10:26:05;5.95;;;2.00;;
43554;SDS011;35085;40.398;-3.702;2022-07-01T10:46:41;5.10;;;1.92;;
43554;SDS011;35085;40.398;-3.702;2022-07-01T10:56:50;8.63;;;2.10;;
43554;SDS011;35085;40.398;-3.702;2022-07-01T11:06:59;5.40;;;1.80;;
43554;SDS011;35085;40.398;-3.702;2022-07-01T11:17:02;9.43;;;1.92;;
43554;SDS011;35085;40.398;-3.702;2022-07-01T11:27:08;6.40;;;2.90;;
43554;SDS011;35085;40.398;-3.702;2022-07-01T11:37:11;5.00;;;1.98;;
43554;SDS011;35085;40.398;-3.702;2022-07-01T11:47:32;9.07;;;2.78;;
43554;SDS011;35085;40.398;-3.702;2022-07-01T11:57:43;4.40;;;1.45;;
43554;SDS011;35085;40.398;-3.702;2022-07-01T12:07:51;5.45;;;1.90;;
43554;SDS011;35085;40.398;-3.702;2022-07-01T12:18:06;6.45;;;1.60;;
43554;SDS011;35085;40.398;-3.702;2022-07-01T12:28:23;9.60;;;4.70;;
43554;SDS011;35085;40.398;-3.702;2022-07-01T12:38:25;8.32;;;2.60;;
43554;SDS011;35085;40.398;-3.702;2022-07-01T12:48:47;17.35;;;9.50;;
43554;SDS011;35085;40.398;-3.702;2022-07-01T12:58:50;6.43;;;3.10;;
43554;SDS011;35085;40.398;-3.702;2022-07-01T13:08:57;6.82;;;2.35;;
43554;SDS011;35085;40.398;-3.702;2022-07-01T13:19:06;9.02;;;1.80;;
43554;SDS011;35085;40.398;-3.702;2022-07-01T13:29:09;4.05;;;2.38;;
43554;SDS011;35085;40.398;-3.702;2022-07-01T13:39:19;3.05;;;1.55;;
43554;SDS011;35085;40.398;-3.702;2022-07-01T13:49:29;5.05;;;2.25;;
43554;SDS011;35085;40.398;-3.702;2022-07-01T13:59:39;4.78;;;1.58;;
43554;SDS011;35085;40.398;-3.702;2022-07-01T14:09:47;4.15;;;1.85;;
43554;SDS011;35085;40.398;-3.702;2022-07-01T14:19:54;6.10;;;2.47;;
43554;SDS011;35085;40.398;-3.702;2022-07-01T14:30:02;4.43;;;1.88;;
43554;SDS011;35085;40.398;-3.702;2022-07-01T14:40:07;2.35;;;0.98;;
43554;SDS011;35085;40.398;-3.702;2022-07-01T14:50:15;5.35;;;1.70;;
43554;SDS011;35085;40.398;-3.702;2022-07-01T15:00:23;4.25;;;1.40;;
43554;SDS011;35085;40.398;-3.702;2022-07-01T15:10:37;3.80;;;1.20;;
43554;SDS011;35085;40.398;-3.702;2022-07-01T15:20:44;3.08;;;1.23;;
43554;SDS011;35085;40.398;-3.702;2022-07-01T15:30:52;3.00;;;1.10;;
43554;SDS011;35085;40.398;-3.702;2022-07-01T15:41:00;7.57;;;1.98;;
43554;SDS011;35085;40.398;-3.702;2022-07-01T15:51:08;8.40;;;1.70;;
43554;SDS011;35085;40.398;-3.702;2022-07-01T16:01:16;15.70;;;5.70;;
43554;SDS011;35085;40.398;-3.702;2022-07-01T16:11:28;5.22;;;1.50;;
43554;SDS011;35085;40.398;-3.702;2022-07-01T16:21:34;6.38;;;3.03;;
43554;SDS011;35085;40.398;-3.702;2022-07-01T16:31:43;7.07;;;2.08;;
43554;SDS011;35085;40.398;-3.702;2022-07-01T16:51:56;6.18;;;1.85;;
43554;SDS011;35085;40.398;-3.702;2022-07-01T17:02:02;2.80;;;1.23;;
43554;SDS011;35085;40.398;-3.702;2022-07-01T17:12:04;5.68;;;1.42;;
43554;SDS011;35085;40.398;-3.702;2022-07-01T17:22:14;7.28;;;2.75;;
43554;SDS011;35085;40.398;-3.702;2022-07-01T17:32:22;3.92;;;2.22;;
43554;SDS011;35085;40.398;-3.702;2022-07-01T17:42:31;4.85;;;1.30;;
43554;SDS011;35085;40.398;-3.702;2022-07-01T17:52:40;3.58;;;1.80;;
43554;SDS011;35085;40.398;-3.702;2022-07-01T18:02:45;8.18;;;2.22;;
43554;SDS011;35085;40.398;-3.702;2022-07-01T18:12:56;4.28;;;2.00;;
43554;SDS011;35085;40.398;-3.702;2022-07-01T18:33:16;5.25;;;1.90;;
43554;SDS011;35085;40.398;-3.702;2022-07-01T18:43:19;4.55;;;1.40;;
43554;SDS011;35085;40.398;-3.702;2022-07-01T18:53:28;6.68;;;1.30;;
43554;SDS011;35085;40.398;-3.702;2022-07-01T19:03:35;7.07;;;2.78;;
43554;SDS011;35085;40.398;-3.702;2022-07-01T19:13:44;4.55;;;1.60;;
43554;SDS011;35085;40.398;-3.702;2022-07-01T19:23:51;10.05;;;1.75;;
43554;SDS011;35085;40.398;-3.702;2022-07-01T19:33:53;4.03;;;1.77;;
43554;SDS011;35085;40.398;-3.702;2022-07-01T19:44:01;6.00;;;1.73;;
43554;SDS011;35085;40.398;-3.702;2022-07-01T19:54:09;8.30;;;3.30;;
43554;SDS011;35085;40.398;-3.702;2022-07-01T20:04:18;7.18;;;2.30;;
43554;SDS011;35085;40.398;-3.702;2022-07-01T20:14:30;6.90;;;3.00;;
43554;SDS011;35085;40.398;-3.702;2022-07-01T20:24:38;7.65;;;4.40;;
43554;SDS011;35085;40.398;-3.702;2022-07-01T20:34:47;24.92;;;12.38;;
43554;SDS011;35085;40.398;-3.702;2022-07-01T20:44:57;20.88;;;10.45;;
43554;SDS011;35085;40.398;-3.702;2022-07-01T20:55:05;12.93;;;6.00;;
43554;SDS011;35085;40.398;-3.702;2022-07-01T21:05:14;12.95;;;2.85;;
43554;SDS011;35085;40.398;-3.702;2022-07-01T21:15:25;8.00;;;3.05;;
43554;SDS011;35085;40.398;-3.702;2022-07-01T21:25:34;11.27;;;4.78;;
43554;SDS011;35085;40.398;-3.702;2022-07-01T21:35:43;4.18;;;2.50;;
43554;SDS011;35085;40.398;-3.702;2022-07-01T21:45:54;7.53;;;2.53;;
43554;SDS011;35085;40.398;-3.702;2022-07-01T21:56:01;6.93;;;2.73;;
43554;SDS011;35085;40.398;-3.702;2022-07-01T22:06:10;8.48;;;2.40;;
43554;SDS011;35085;40.398;-3.702;2022-07-01T22:16:22;12.23;;;2.80;;
43554;SDS011;35085;40.398;-3.702;2022-07-01T22:26:28;4.87;;;2.50;;
43554;SDS011;35085;40.398;-3.702;2022-07-01T22:36:37;7.88;;;2.80;;
43554;SDS011;35085;40.398;-3.702;2022-07-01T22:47:06;7.70;;;2.50;;
43554;SDS011;35085;40.398;-3.702;2022-07-01T22:57:08;12.88;;;3.25;;
43554;SDS011;35085;40.398;-3.702;2022-07-01T23:07:35;11.93;;;3.45;;
43554;SDS011;35085;40.398;-3.702;2022-07-01T23:17:39;13.27;;;2.72;;
43554;SDS011;35085;40.398;-3.702;2022-07-01T23:27:46;9.27;;;2.70;;
43554;SDS011;35085;40.398;-3.702;2022-07-01T23:37:54;7.70;;;2.50;;
43554;SDS011;35085;40.398;-3.702;2022-07-01T23:48:01;6.90;;;2.67;;
43554;SDS011;35085;40.398;-3.702;2022-07-01T23:58:10;10.35;;;2.83;;
